Time;durP1;ratioP1;P1;durP2;ratioP2;P2;SDS_P1;SDS_P2;PMS_P1;PMS_P2;Temp;Humidity;BMP_temperature;BMP_pressure;BME280_temperature;BME280_humidity;BME280_pressure;Samples;Min_cycle;Max_cycle;Signal;HPM_P1;HPM_P2
2022/08/10 00:00:58;;;;;;;2.67;2.20;;;;;;;17.66;72.89;102544.81;5003598;28;21445;-79
2022/08/10 00:03:24;;;;;;;3.50;2.13;;;;;;;17.57;73.11;102541.50;4984327;28;20045;-79
2022/08/10 00:05:49;;;;;;;2.60;2.33;;;;;;;17.45;74.19;102544.06;5004050;28;20553;-79
2022/08/10 00:08:15;;;;;;;3.73;2.40;;;;;;;17.27;74.84;102536.53;5003811;28;20443;-78
2022/08/10 00:10:40;;;;;;;3.60;2.40;;;;;;;17.19;75.17;102534.03;5003785;28;20457;-78
2022/08/10 00:13:06;;;;;;;5.43;2.77;;;;;;;17.19;75.35;102531.28;5004738;28;20573;-79
2022/08/10 00:15:31;;;;;;;3.00;2.37;;;;;;;17.26;74.86;102544.94;4994124;28;20037;-78
2022/08/10 00:17:57;;;;;;;3.00;2.60;;;;;;;17.20;75.44;102538.44;5007384;28;20045;-78
2022/08/10 00:20:22;;;;;;;3.37;2.80;;;;;;;17.14;75.59;102528.34;4988579;28;20041;-79
2022/08/10 00:22:48;;;;;;;3.97;2.63;;;;;;;17.17;75.40;102533.41;4987744;28;20461;-78
2022/08/10 00:25:13;;;;;;;4.13;2.67;;;;;;;17.00;75.81;102522.91;5007000;28;20041;-79
2022/08/10 00:27:38;;;;;;;4.13;2.60;;;;;;;17.02;75.76;102520.78;4987178;28;20041;-79
2022/08/10 00:30:06;;;;;;;4.07;2.70;;;;;;;16.94;76.23;102515.53;5007301;28;21305;-78
2022/08/10 00:32:32;;;;;;;4.40;2.53;;;;;;;17.01;75.89;102523.72;5007565;28;20078;-80
2022/08/10 00:34:57;;;;;;;3.33;2.80;;;;;;;16.96;76.75;102520.78;5006122;28;20547;-79
2022/08/10 00:37:22;;;;;;;3.97;2.60;;;;;;;16.95;76.33;102510.91;5006858;28;20600;-79
2022/08/10 00:39:48;;;;;;;4.37;3.03;;;;;;;16.91;76.62;102515.13;5006769;28;20581;-80
2022/08/10 00:42:14;;;;;;;4.60;2.60;;;;;;;16.96;76.31;102516.19;5006857;28;20124;-79
2022/08/10 00:44:45;;;;;;;2.93;2.43;;;;;;;17.01;75.68;102510.03;5006780;28;20061;-78
2022/08/10 00:47:12;;;;;;;4.27;2.60;;;;;;;17.04;75.38;102504.16;5006434;28;20034;-78
2022/08/10 00:49:38;;;;;;;4.70;2.60;;;;;;;17.07;75.04;102511.94;5007306;28;20113;-81
2022/08/10 00:52:05;;;;;;;5.33;2.80;;;;;;;16.96;76.26;102507.09;5006804;28;20034;-79
2022/08/10 00:54:34;;;;;;;2.90;2.70;;;;;;;16.84;76.62;102501.44;5006855;28;20041;-79
2022/08/10 00:56:59;;;;;;;2.70;2.50;;;;;;;16.87;76.47;102507.28;5006610;28;20038;-78
2022/08/10 00:59:58;;;;;;;2.93;2.63;;;;;;;16.84;76.71;102510.47;5006619;28;20068;-78
2022/08/10 01:02:24;;;;;;;4.73;2.60;;;;;;;16.83;76.60;102505.22;5006261;28;20395;-80
2022/08/10 01:04:49;;;;;;;3.27;2.97;;;;;;;16.84;76.38;102507.72;5007226;28;20029;-79
2022/08/10 01:07:39;;;;;;;3.13;2.50;;;;;;;16.89;76.01;102509.88;5004945;28;20042;-80
2022/08/10 01:10:28;;;;;;;3.23;2.80;;;;;;;16.93;75.68;102508.41;5004651;28;21710;-78
2022/08/10 01:13:03;;;;;;;3.97;2.97;;;;;;;16.94;75.65;102503.75;5005053;28;20036;-78
2022/08/10 01:15:40;;;;;;;3.87;2.70;;;;;;;16.99;75.55;102504.78;5004082;28;20179;-79
2022/08/10 01:18:16;;;;;;;4.43;2.80;;;;;;;16.97;75.35;102506.91;4990602;28;20056;-79
2022/08/10 01:21:03;;;;;;;3.07;2.77;;;;;;;16.97;75.33;102503.31;4988088;28;20461;-81
2022/08/10 01:24:06;;;;;;;3.23;2.90;;;;;;;16.98;75.12;102502.25;4988757;28;20117;-79
2022/08/10 01:26:54;;;;;;;2.70;2.50;;;;;;;16.99;75.06;102498.47;5003741;28;20455;-79
2022/08/10 01:29:32;;;;;;;3.37;2.80;;;;;;;16.94;74.87;102499.09;5002773;28;20045;-79
2022/08/10 01:32:03;;;;;;;3.90;2.83;;;;;;;16.95;75.31;102502.72;5003510;28;20038;-80
2022/08/10 01:34:58;;;;;;;3.50;2.80;;;;;;;16.94;74.97;102496.38;5003890;28;20046;-80
2022/08/10 01:37:31;;;;;;;3.65;2.92;;;;;;;16.89;75.68;102487.97;4998392;28;20053;-79
2022/08/10 01:39:58;;;;;;;3.20;2.90;;;;;;;16.88;75.64;102497.22;5005200;28;20471;-81
2022/08/10 01:42:27;;;;;;;5.23;3.10;;;;;;;16.77;76.53;102495.09;5005396;28;20291;-80
2022/08/10 01:44:55;;;;;;;3.63;3.10;;;;;;;16.75;76.38;102495.31;5004790;28;20115;-79
2022/08/10 01:50:21;;;;;;;4.27;3.20;;;;;;;16.71;76.43;102491.31;5005582;28;20056;-79
2022/08/10 01:52:49;;;;;;;4.27;3.23;;;;;;;16.66;77.03;102499.34;5006207;28;20151;-79
2022/08/10 01:55:16;;;;;;;3.57;3.10;;;;;;;16.63;76.76;102499.75;4987700;28;20037;-78
2022/08/10 01:57:43;;;;;;;5.87;3.23;;;;;;;16.69;76.75;102496.19;5005353;28;20044;-81
2022/08/10 02:00:09;;;;;;;5.13;3.30;;;;;;;16.64;76.99;102496.81;5005225;28;20443;-80
2022/08/10 02:02:36;;;;;;;3.50;3.20;;;;;;;16.58;77.18;102492.19;5003807;28;20040;-78
2022/08/10 02:05:04;;;;;;;3.80;3.40;;;;;;;16.65;76.90;102503.16;5002548;28;21398;-79
2022/08/10 02:07:32;;;;;;;4.37;3.33;;;;;;;16.57;77.25;102489.69;5003394;28;20092;-79
2022/08/10 02:10:05;;;;;;;4.53;3.70;;;;;;;16.36;78.69;102500.63;5003340;28;21227;-79
2022/08/10 02:12:33;;;;;;;5.25;3.80;;;;;;;16.36;78.01;102497.88;5003290;28;20065;-80
2022/08/10 02:15:02;;;;;;;4.13;3.53;;;;;;;16.31;78.61;102494.94;5004886;28;20041;-79
2022/08/10 02:17:35;;;;;;;4.13;3.70;;;;;;;16.22;79.60;102492.63;5005284;28;20386;-79
2022/08/10 02:20:14;;;;;;;4.37;3.97;;;;;;;16.12;79.56;102488.41;5005032;28;20134;-79
2022/08/10 02:22:42;;;;;;;4.70;3.77;;;;;;;16.08;79.81;102486.31;5004891;28;20116;-81
2022/08/10 02:25:10;;;;;;;5.50;4.10;;;;;;;16.00;80.04;102485.44;5004725;28;21242;-79
2022/08/10 02:27:37;;;;;;;4.40;4.00;;;;;;;16.04;79.94;102486.72;5004374;28;20041;-79
2022/08/10 02:30:05;;;;;;;7.80;4.33;;;;;;;16.06;80.09;102500.19;5004824;28;20643;-79
2022/08/10 02:32:33;;;;;;;6.43;4.20;;;;;;;16.03;79.88;102493.25;5004558;28;20036;-80
2022/08/10 02:35:01;;;;;;;5.33;4.20;;;;;;;16.11;79.96;102488.63;5004876;28;20049;-79
2022/08/10 02:37:28;;;;;;;6.80;4.27;;;;;;;16.06;80.34;102488.41;5005058;28;20033;-79
2022/08/10 02:39:53;;;;;;;4.90;4.40;;;;;;;16.01;80.21;102487.13;5004488;28;20452;-80
2022/08/10 02:42:37;;;;;;;6.20;4.60;;;;;;;15.95;80.69;102498.91;4986659;28;20037;-79
2022/08/10 02:45:29;;;;;;;4.75;3.92;;;;;;;15.98;80.11;102497.63;4988691;28;20034;-80
2022/08/10 02:47:59;;;;;;;4.80;4.40;;;;;;;15.92;80.42;102493.84;5004399;28;20061;-80
2022/08/10 02:50:27;;;;;;;6.47;4.57;;;;;;;15.92;80.79;102493.00;5005340;28;20025;-79
2022/08/10 02:53:00;;;;;;;6.93;4.20;;;;;;;15.92;80.51;102485.63;4987543;28;20044;-79
2022/08/10 02:55:29;;;;;;;5.93;4.63;;;;;;;15.90;80.75;102485.03;4985213;28;20041;-79
2022/08/10 02:57:57;;;;;;;5.00;4.50;;;;;;;15.87;80.76;102485.44;5005052;28;20044;-80
2022/08/10 03:00:24;;;;;;;5.20;4.57;;;;;;;15.75;81.60;102478.84;4984837;28;20038;-80
2022/08/10 03:02:51;;;;;;;5.80;4.37;;;;;;;15.75;81.64;102476.97;5004275;28;20555;-79
2022/08/10 03:05:20;;;;;;;8.10;4.60;;;;;;;15.70;82.08;102480.31;5004447;28;20037;-79
2022/08/10 03:07:50;;;;;;;6.97;4.53;;;;;;;15.76;81.60;102475.06;5003979;28;20060;-80
2022/08/10 03:10:23;;;;;;;5.93;4.67;;;;;;;15.72;81.75;102473.78;5005432;28;20033;-79
2022/08/10 03:12:53;;;;;;;6.93;4.60;;;;;;;15.76;81.49;102472.34;5004237;28;20036;-80
2022/08/10 03:15:21;;;;;;;6.13;4.60;;;;;;;15.70;81.79;102469.38;5003867;28;20040;-80
2022/08/10 03:17:48;;;;;;;6.30;4.47;;;;;;;15.70;81.68;102463.91;5005286;28;20600;-78
2022/08/10 03:20:15;;;;;;;6.37;4.43;;;;;;;15.74;81.55;102468.97;4988828;28;20065;-80
2022/08/10 03:22:43;;;;;;;7.00;4.67;;;;;;;15.76;81.87;102472.34;5004364;28;20322;-80
2022/08/10 03:25:11;;;;;;;6.23;4.50;;;;;;;15.72;81.72;102462.88;5003690;28;20528;-80
2022/08/10 03:27:39;;;;;;;6.27;4.60;;;;;;;15.77;81.44;102463.91;5004289;28;20041;-80
2022/08/10 03:30:06;;;;;;;8.00;4.90;;;;;;;15.78;81.73;102464.78;5003480;28;20066;-79
2022/08/10 03:32:32;;;;;;;5.30;4.73;;;;;;;15.74;81.84;102458.06;4984297;28;20104;-80
2022/08/10 03:34:59;;;;;;;5.00;4.50;;;;;;;15.63;82.20;102463.06;5004053;28;20041;-79
2022/08/10 03:37:26;;;;;;;6.10;4.77;;;;;;;15.60;82.31;102465.34;5004809;28;20112;-80
2022/08/10 03:39:53;;;;;;;6.40;4.50;;;;;;;15.42;83.82;102461.31;5004906;28;20037;-79
2022/08/10 03:42:20;;;;;;;5.00;4.47;;;;;;;15.46;83.30;102462.59;4989174;28;20091;-81
2022/08/10 03:44:48;;;;;;;5.30;4.80;;;;;;;15.39;83.59;102469.06;5003936;28;20071;-79
2022/08/10 03:47:15;;;;;;;5.73;4.80;;;;;;;15.31;83.85;102465.50;4986322;28;20776;-79
2022/08/10 03:49:42;;;;;;;5.83;4.70;;;;;;;15.36;83.71;102468.44;5006906;28;20049;-82
2022/08/10 03:52:08;;;;;;;6.17;4.53;;;;;;;15.39;83.97;102471.81;5008016;28;20371;-79
2022/08/10 03:54:34;;;;;;;5.63;5.00;;;;;;;15.42;83.93;102471.38;4992716;28;20049;-79
2022/08/10 03:57:00;;;;;;;7.57;5.10;;;;;;;15.38;83.88;102472.84;5007671;28;20046;-80
2022/08/10 03:59:26;;;;;;;6.60;4.70;;;;;;;15.35;84.15;102469.50;5008231;28;20049;-80
2022/08/10 04:01:53;;;;;;;7.83;4.83;;;;;;;15.33;83.81;102452.47;5008513;28;20044;-81
2022/08/10 04:04:19;;;;;;;8.87;5.00;;;;;;;15.41;83.80;102464.25;5007219;28;20112;-79
2022/08/10 04:06:45;;;;;;;6.63;4.70;;;;;;;15.38;83.97;102464.66;5007523;28;20061;-79
2022/08/10 04:09:12;;;;;;;5.80;4.80;;;;;;;15.45;83.98;102465.50;4990141;28;20116;-81
2022/08/10 04:11:39;;;;;;;7.80;4.80;;;;;;;15.36;83.83;102457.50;5007657;28;20543;-79
2022/08/10 04:14:04;;;;;;;5.80;4.87;;;;;;;15.24;85.00;102459.13;5007606;28;20038;-80
2022/08/10 04:16:30;;;;;;;7.97;5.07;;;;;;;15.19;85.48;102459.75;4988120;28;20085;-81
2022/08/10 04:19:16;;;;;;;6.63;5.00;;;;;;;15.22;84.88;102468.56;5007067;28;20046;-79
2022/08/10 04:21:46;;;;;;;8.80;5.20;;;;;;;15.19;85.21;102467.94;5007863;28;20545;-79
2022/08/10 04:24:17;;;;;;;5.80;4.90;;;;;;;15.22;85.22;102461.25;5007652;28;20034;-79
2022/08/10 04:26:44;;;;;;;6.40;4.93;;;;;;;15.21;85.09;102464.19;5006579;28;20124;-79
2022/08/10 04:29:09;;;;;;;6.67;4.77;;;;;;;15.23;84.95;102462.06;5007274;28;20471;-79
2022/08/10 04:31:36;;;;;;;7.87;5.27;;;;;;;15.25;84.97;102466.28;4987888;28;20038;-81
2022/08/10 04:34:02;;;;;;;8.43;5.10;;;;;;;15.21;85.11;102470.47;4987198;28;20096;-81
2022/08/10 04:36:28;;;;;;;6.47;4.63;;;;;;;15.28;85.02;102465.88;5006834;28;20088;-80
2022/08/10 04:38:54;;;;;;;7.37;4.97;;;;;;;15.27;84.83;102468.81;5007150;28;20060;-79
2022/08/10 04:41:20;;;;;;;6.53;4.97;;;;;;;15.29;84.77;102470.28;5007227;28;20083;-79
2022/08/10 04:43:46;;;;;;;7.60;5.40;;;;;;;15.27;85.03;102469.66;4986834;28;20081;-80
2022/08/10 04:46:11;;;;;;;7.67;5.23;;;;;;;15.25;85.42;102477.22;5007070;28;20045;-80
2022/08/10 04:48:37;;;;;;;7.27;5.30;;;;;;;15.18;85.74;102462.69;5006582;28;20478;-79
2022/08/10 04:51:03;;;;;;;7.73;5.57;;;;;;;15.22;85.94;102461.25;4987906;28;20042;-79
2022/08/10 04:53:28;;;;;;;7.60;5.63;;;;;;;15.14;86.67;102470.44;5006695;28;20038;-80
2022/08/10 04:55:53;;;;;;;9.00;5.20;;;;;;;15.11;86.89;102462.66;4986521;28;20076;-79
2022/08/10 04:58:19;;;;;;;7.90;5.70;;;;;;;15.03;87.00;102462.84;5006621;28;20117;-80
2022/08/10 05:00:44;;;;;;;6.60;5.03;;;;;;;15.07;87.02;102465.97;5006519;28;20038;-79
2022/08/10 05:03:09;;;;;;;6.07;5.40;;;;;;;15.10;87.02;102457.41;4985103;28;20045;-79
2022/08/10 05:05:35;;;;;;;7.70;5.67;;;;;;;15.16;86.68;102457.44;5006194;28;20440;-79
2022/08/10 05:08:00;;;;;;;10.23;6.07;;;;;;;15.18;87.04;102458.06;5006746;28;20148;-80
2022/08/10 05:10:25;;;;;;;8.07;5.80;;;;;;;15.24;86.88;102459.13;4986743;28;20089;-80
2022/08/10 05:12:51;;;;;;;9.00;6.27;;;;;;;15.24;87.22;102456.41;5006856;28;20042;-81
2022/08/10 05:15:17;;;;;;;10.13;5.90;;;;;;;15.27;87.31;102468.81;5006364;28;20125;-80
2022/08/10 05:17:44;;;;;;;8.90;5.90;;;;;;;15.33;86.89;102473.47;5005992;28;20033;-80
2022/08/10 05:20:11;;;;;;;7.73;6.00;;;;;;;15.38;86.92;102467.38;5005616;28;20041;-79
2022/08/10 05:22:38;;;;;;;7.60;5.70;;;;;;;15.47;86.66;102477.09;5003862;28;20042;-80
2022/08/10 05:25:22;;;;;;;8.97;6.40;;;;;;;15.55;86.26;102481.53;4988647;28;20772;-80
2022/08/10 05:27:47;;;;;;;8.18;5.65;;;;;;;15.58;86.37;102471.03;4987195;28;20100;-79
2022/08/10 05:30:18;;;;;;;9.30;6.03;;;;;;;15.63;86.44;102476.72;5002871;28;20037;-80
2022/08/10 05:32:44;;;;;;;9.47;6.60;;;;;;;15.64;87.10;102481.13;4983818;28;20547;-81
2022/08/10 05:35:10;;;;;;;8.80;6.30;;;;;;;15.74;86.62;102479.91;5005406;28;20682;-80
2022/08/10 05:37:36;;;;;;;7.80;5.60;;;;;;;15.84;85.15;102481.22;5004660;28;20083;-78
2022/08/10 05:40:04;;;;;;;5.50;4.80;;;;;;;15.95;84.15;102485.25;4985109;28;20033;-79
2022/08/10 05:42:30;;;;;;;11.07;6.20;;;;;;;16.00;84.84;102484.59;5005836;28;20041;-80
2022/08/10 05:44:56;;;;;;;11.10;6.50;;;;;;;16.08;85.67;102480.84;5004368;28;20037;-80
2022/08/10 05:47:21;;;;;;;11.07;6.77;;;;;;;16.15;85.36;102481.69;5005134;28;20087;-80
2022/08/10 05:49:48;;;;;;;7.57;5.73;;;;;;;16.25;84.33;102482.13;5005191;28;20478;-79
2022/08/10 05:52:16;;;;;;;7.57;5.90;;;;;;;16.28;84.27;102481.69;4987193;28;20030;-79
2022/08/10 05:54:43;;;;;;;8.27;6.27;;;;;;;16.42;83.94;102490.72;5004826;28;20041;-80
2022/08/10 05:57:10;;;;;;;8.20;6.23;;;;;;;16.49;83.70;102479.78;5005208;28;20038;-79
2022/08/10 05:59:40;;;;;;;7.67;6.47;;;;;;;16.49;84.01;102485.25;4977251;28;20486;-78
2022/08/10 06:02:07;;;;;;;10.40;6.67;;;;;;;16.57;84.64;102486.94;5004196;28;20398;-79
2022/08/10 06:04:39;;;;;;;10.23;6.20;;;;;;;16.65;84.15;102482.09;5004387;28;20048;-80
2022/08/10 06:07:07;;;;;;;8.47;6.13;;;;;;;16.78;83.17;102492.19;5004601;28;20110;-79
2022/08/10 06:09:35;;;;;;;8.77;6.30;;;;;;;16.90;83.57;102483.34;5004098;28;20393;-79
2022/08/10 06:12:01;;;;;;;7.23;6.07;;;;;;;16.98;82.63;102483.94;5004152;28;20116;-80
2022/08/10 06:17:17;;;;;;;13.07;6.50;;;;;;;17.15;83.23;102483.50;5005109;28;20084;-78
2022/08/10 06:19:42;;;;;;;9.03;6.13;;;;;;;17.30;82.83;102483.19;5002845;28;20084;-80
2022/08/10 06:22:09;;;;;;;8.97;6.50;;;;;;;17.38;81.77;102486.53;5004756;28;20042;-78
2022/08/10 06:24:39;;;;;;;9.83;6.50;;;;;;;17.48;80.63;102485.25;5004482;28;20034;-79
2022/08/10 06:27:05;;;;;;;9.53;6.53;;;;;;;17.61;80.85;102484.31;4984542;28;20509;-79
2022/08/10 06:29:33;;;;;;;8.60;6.27;;;;;;;17.70;79.69;102489.31;4945569;28;1114317;-80
2022/08/10 06:32:01;;;;;;;10.33;6.30;;;;;;;17.84;79.36;102486.50;5004569;28;21110;-78
2022/08/10 06:34:31;;;;;;;7.97;6.07;;;;;;;17.91;77.14;102489.19;5004821;28;20636;-79
2022/08/10 06:37:00;;;;;;;10.33;6.00;;;;;;;17.99;77.27;102480.75;5004932;28;20041;-79
2022/08/10 06:39:26;;;;;;;9.93;6.33;;;;;;;18.07;77.40;102493.34;5004103;28;20036;-80
2022/08/10 06:41:56;;;;;;;7.00;5.70;;;;;;;18.20;76.52;102482.28;4970649;28;20072;-81
2022/08/10 06:44:31;;;;;;;7.43;6.00;;;;;;;18.27;76.04;102487.72;5004152;28;20152;-79
2022/08/10 06:46:58;;;;;;;8.07;5.60;;;;;;;18.37;76.22;102488.91;5003943;28;20030;-79
2022/08/10 06:49:23;;;;;;;8.10;6.17;;;;;;;18.40;75.22;102482.13;5004016;28;20030;-80
2022/08/10 06:51:54;;;;;;;8.37;6.50;;;;;;;18.42;75.14;102481.91;5004077;28;20060;-79
2022/08/10 06:54:24;;;;;;;10.37;6.57;;;;;;;18.59;74.83;102490.38;4986830;28;20484;-80
2022/08/10 06:56:53;;;;;;;11.10;6.10;;;;;;;18.73;75.04;102495.50;5004837;28;20084;-80
2022/08/10 06:59:26;;;;;;;8.93;6.53;;;;;;;18.82;74.72;102495.22;5004618;28;20033;-79
2022/08/10 07:02:03;;;;;;;9.00;6.28;;;;;;;19.01;74.07;102493.34;5004845;28;20076;-78
2022/08/10 07:04:33;;;;;;;7.97;6.33;;;;;;;19.04;73.53;102495.66;5005073;28;20054;-79
2022/08/10 07:07:01;;;;;;;9.93;5.88;;;;;;;19.24;73.69;102492.66;5004505;28;20044;-78
2022/08/10 07:09:27;;;;;;;11.18;6.13;;;;;;;19.33;73.22;102493.22;5004221;28;21520;-78
2022/08/10 07:11:54;;;;;;;7.90;6.00;;;;;;;19.43;73.35;102489.91;5004568;28;20484;-80
2022/08/10 07:14:20;;;;;;;10.10;6.25;;;;;;;19.52;71.09;102500.34;5005216;28;20099;-79
2022/08/10 07:16:46;;;;;;;10.50;5.80;;;;;;;19.70;71.90;102504.13;5004506;28;20040;-80
2022/08/10 07:19:12;;;;;;;7.90;5.90;;;;;;;19.75;68.79;102504.28;5004448;28;20045;-80
2022/08/10 07:21:44;;;;;;;7.25;5.60;;;;;;;19.88;69.45;102504.13;5005247;28;20085;-80
2022/08/10 07:24:12;;;;;;;8.65;5.75;;;;;;;19.96;69.13;102499.34;4989460;28;20088;-79
2022/08/10 07:26:51;;;;;;;8.30;5.20;;;;;;;20.09;68.05;102501.91;5008822;28;20521;-78
2022/08/10 07:29:19;;;;;;;7.93;5.07;;;;;;;20.19;67.88;102499.38;5009196;28;20401;-78
2022/08/10 07:31:48;;;;;;;7.95;5.15;;;;;;;20.48;67.21;102505.06;5008071;28;20034;-80
2022/08/10 07:34:16;;;;;;;7.78;5.00;;;;;;;20.64;67.70;102509.00;5008965;28;20156;-82
2022/08/10 07:36:44;;;;;;;8.63;5.50;;;;;;;20.69;66.56;102498.16;5008124;28;20401;-80
2022/08/10 07:39:11;;;;;;;10.32;5.05;;;;;;;20.82;66.10;102507.25;5008958;28;20037;-79
2022/08/10 07:41:41;;;;;;;9.45;4.88;;;;;;;20.94;65.63;102513.56;5008047;28;20041;-78
2022/08/10 07:44:10;;;;;;;11.75;5.35;;;;;;;20.97;63.84;102501.25;4997824;28;20112;-79
2022/08/10 07:46:40;;;;;;;7.32;5.10;;;;;;;21.11;62.78;102501.84;5007468;28;20555;-80
2022/08/10 07:49:11;;;;;;;8.40;4.80;;;;;;;21.24;61.90;102498.78;5007523;28;20138;-80
2022/08/10 07:51:37;;;;;;;8.43;4.38;;;;;;;21.37;62.36;102501.28;5007583;28;20543;-79
2022/08/10 07:54:06;;;;;;;7.00;4.72;;;;;;;21.33;60.89;102502.84;5007632;28;20042;-80
2022/08/10 07:56:33;;;;;;;7.45;3.92;;;;;;;21.61;61.75;102504.00;5007407;28;20079;-80
2022/08/10 07:59:06;;;;;;;9.82;4.70;;;;;;;21.57;61.32;102509.16;5008141;28;20104;-80
2022/08/10 08:01:35;;;;;;;9.33;4.80;;;;;;;21.66;61.00;102500.47;5008187;28;20026;-79
2022/08/10 08:04:02;;;;;;;4.95;3.95;;;;;;;21.85;62.07;102506.63;5008239;28;20072;-80
2022/08/10 08:06:31;;;;;;;6.78;4.40;;;;;;;21.69;58.03;102506.34;5005905;28;20057;-80
2022/08/10 08:08:59;;;;;;;8.15;4.00;;;;;;;21.76;58.87;102497.94;5006528;28;20065;-82
2022/08/10 08:11:26;;;;;;;7.43;4.30;;;;;;;21.84;58.87;102497.53;5005650;28;20177;-79
2022/08/10 08:13:53;;;;;;;6.82;4.00;;;;;;;22.02;58.80;102507.50;4987727;28;20518;-78
2022/08/10 08:16:21;;;;;;;6.30;4.13;;;;;;;22.25;59.46;102502.94;4986750;28;20068;-80
2022/08/10 08:18:49;;;;;;;6.63;4.05;;;;;;;22.40;58.99;102505.13;5003916;28;20397;-79
2022/08/10 08:21:15;;;;;;;9.02;4.35;;;;;;;22.43;57.82;102508.22;5002581;28;20037;-77
2022/08/10 08:23:42;;;;;;;8.38;4.40;;;;;;;22.54;57.74;102516.66;4983973;28;20049;-78
2022/08/10 08:26:09;;;;;;;6.63;3.90;;;;;;;23.00;59.35;102511.00;5003704;28;20378;-81
2022/08/10 08:28:36;;;;;;;9.82;4.40;;;;;;;23.07;57.07;102504.16;5003035;28;20400;-78
2022/08/10 08:31:03;;;;;;;5.18;4.00;;;;;;;23.30;56.99;102506.97;5004900;28;20629;-80
2022/08/10 08:33:30;;;;;;;8.27;4.10;;;;;;;23.54;54.81;102501.97;5005261;28;20041;-79
2022/08/10 08:35:56;;;;;;;7.22;4.03;;;;;;;23.56;53.82;102505.34;5005357;28;20046;-80
2022/08/10 08:38:23;;;;;;;7.50;3.75;;;;;;;23.80;51.59;102502.25;5006489;28;20090;-79
2022/08/10 08:41:11;;;;;;;4.22;3.45;;;;;;;24.08;52.07;102502.03;5004981;28;20048;-79
2022/08/10 08:43:45;;;;;;;6.35;2.70;;;;;;;24.68;51.07;102509.41;5004986;28;20084;-78
2022/08/10 08:46:41;;;;;;;8.23;2.88;;;;;;;25.06;48.96;102499.09;5005213;28;20122;-79
2022/08/10 08:49:44;;;;;;;6.07;2.55;;;;;;;25.63;48.94;102497.38;5005410;28;20402;-81
2022/08/10 08:52:12;;;;;;;4.70;3.20;;;;;;;25.83;45.62;102506.84;5005645;28;20043;-80
2022/08/10 08:54:42;;;;;;;5.05;3.08;;;;;;;25.92;46.63;102503.25;5004598;28;20069;-79
2022/08/10 08:57:36;;;;;;;5.45;2.90;;;;;;;25.85;45.75;102504.63;5004145;28;20073;-81
2022/08/10 09:00:35;;;;;;;6.00;2.90;;;;;;;26.36;47.35;102506.63;5004658;28;20029;-81
2022/08/10 09:03:25;;;;;;;7.43;3.28;;;;;;;26.60;47.08;102504.06;5005816;28;20045;-79
2022/08/10 09:06:39;;;;;;;5.85;3.30;;;;;;;26.65;46.70;102495.72;5003900;28;20037;-79
2022/08/10 09:09:40;;;;;;;6.68;3.30;;;;;;;27.01;46.88;102495.66;4968156;28;20053;-79
2022/08/10 09:12:31;;;;;;;5.60;3.10;;;;;;;26.72;43.97;102504.66;5002814;28;20033;-80
2022/08/10 09:15:27;;;;;;;6.40;3.17;;;;;;;27.37;44.76;102497.47;4981083;28;20433;-79
2022/08/10 09:18:15;;;;;;;9.00;2.92;;;;;;;27.45;44.16;102497.69;5002362;28;20033;-82
2022/08/10 09:20:57;;;;;;;5.80;3.00;;;;;;;27.86;42.45;102491.03;5002308;28;20045;-80
2022/08/10 09:23:45;;;;;;;4.57;2.95;;;;;;;28.03;43.24;102492.59;5005627;28;20084;-78
2022/08/10 09:26:17;;;;;;;9.23;3.15;;;;;;;28.40;40.50;102489.22;5003864;28;20061;-79
2022/08/10 09:28:43;;;;;;;4.65;2.60;;;;;;;28.43;41.17;102487.78;5004688;28;20100;-80
2022/08/10 09:31:11;;;;;;;4.88;2.70;;;;;;;28.45;41.27;102488.31;5004884;28;21281;-78
2022/08/10 09:34:09;;;;;;;9.15;2.90;;;;;;;28.40;40.23;102482.81;5005585;28;20041;-80
2022/08/10 09:37:23;;;;;;;5.85;2.90;;;;;;;29.04;41.24;102477.91;5004505;28;20026;-79
2022/08/10 09:39:57;;;;;;;5.72;2.90;;;;;;;29.13;39.62;102473.34;4985496;28;20034;-81
2022/08/10 09:43:01;;;;;;;7.15;2.88;;;;;;;29.68;39.79;102474.81;5000946;28;20489;-81
2022/08/10 09:45:31;;;;;;;;;;;;;;;30.28;38.18;102473.28;4998651;28;20042;-78
2022/08/10 09:48:25;;;;;;;3.20;2.63;;;;;;;30.14;40.01;102464.88;5000527;28;19928;-80
2022/08/10 09:51:03;;;;;;;5.55;2.90;;;;;;;30.04;38.67;102468.69;5001285;28;20747;-78
2022/08/10 09:54:06;;;;;;;4.22;2.80;;;;;;;30.38;37.28;102463.88;5003364;28;20033;-79
2022/08/10 09:56:47;;;;;;;7.13;3.13;;;;;;;29.73;38.26;102465.50;5004038;28;20078;-80
2022/08/10 09:59:25;;;;;;;4.72;2.58;;;;;;;29.31;37.70;102465.31;5003601;28;20042;-79
2022/08/10 10:01:58;;;;;;;4.60;2.83;;;;;;;29.53;36.16;102469.47;5003046;28;20045;-79
2022/08/10 10:05:18;;;;;;;6.13;2.90;;;;;;;29.70;38.12;102453.00;5004124;28;20601;-80
2022/08/10 10:07:55;;;;;;;4.18;2.60;;;;;;;29.83;36.36;102448.59;4912224;29;20147;-79
2022/08/10 10:10:31;;;;;;;7.53;2.92;;;;;;;29.80;36.98;102450.03;4991267;28;20045;-80
2022/08/10 10:13:09;;;;;;;4.20;2.85;;;;;;;29.26;37.37;102443.06;5003831;28;20037;-79
2022/08/10 10:16:07;;;;;;;8.13;3.05;;;;;;;29.34;36.63;102439.59;5003982;28;20042;-80
2022/08/10 10:18:43;;;;;;;4.38;2.83;;;;;;;29.08;37.12;102437.13;5003239;28;20037;-81
2022/08/10 10:21:19;;;;;;;6.75;3.30;;;;;;;29.03;35.81;102433.59;5004075;28;20033;-80
2022/08/10 10:23:57;;;;;;;4.97;2.72;;;;;;;29.82;37.56;102432.97;4984921;28;20037;-82
2022/08/10 10:26:29;;;;;;;4.43;2.58;;;;;;;30.16;38.26;102433.81;5005099;28;20098;-78
2022/08/10 10:29:13;;;;;;;4.43;2.90;;;;;;;30.17;35.60;102432.69;5003819;28;20053;-79
2022/08/10 10:32:16;;;;;;;4.85;2.95;;;;;;;30.61;34.72;102429.34;5004468;28;20037;-82
2022/08/10 10:35:23;;;;;;;5.70;2.70;;;;;;;31.15;35.67;102429.59;5005023;28;20138;-80
2022/08/10 10:37:51;;;;;;;5.18;2.80;;;;;;;31.00;33.96;102426.31;4929012;29;20095;-80
2022/08/10 10:40:18;;;;;;;5.45;2.92;;;;;;;30.88;33.11;102426.81;4915872;29;20194;-80
2022/08/10 10:43:00;;;;;;;7.10;2.90;;;;;;;31.00;34.72;102413.13;4966806;28;20080;-81
2022/08/10 10:45:34;;;;;;;6.63;2.80;;;;;;;31.05;33.39;102413.03;5004891;28;20107;-80
2022/08/10 10:48:15;;;;;;;5.70;2.97;;;;;;;31.32;32.87;102419.69;5004831;28;20067;-81
2022/08/10 10:51:01;;;;;;;6.00;3.05;;;;;;;31.54;33.73;102413.31;5003870;28;20037;-81
2022/08/10 10:53:44;;;;;;;7.38;2.92;;;;;;;31.47;32.84;102410.94;4985250;28;20385;-80
2022/08/10 10:56:16;;;;;;;4.60;2.70;;;;;;;31.35;33.46;102405.09;4988103;28;20075;-80
2022/08/10 10:59:03;;;;;;;3.67;2.80;;;;;;;31.16;32.49;102391.25;5004820;28;20224;-82
2022/08/10 11:01:43;;;;;;;4.25;2.90;;;;;;;31.21;33.80;102393.94;5004423;28;20070;-77
2022/08/10 11:04:23;;;;;;;4.85;2.97;;;;;;;31.12;31.55;102402.25;5003856;28;20037;-81
2022/08/10 11:07:20;;;;;;;5.57;2.83;;;;;;;31.49;29.86;102400.22;5004572;28;20043;-78
2022/08/10 11:10:21;;;;;;;5.13;2.90;;;;;;;31.43;30.70;102389.47;5005005;28;20041;-79
2022/08/10 11:13:01;;;;;;;4.20;3.00;;;;;;;31.20;28.53;102381.06;4974461;28;20523;-81
2022/08/10 11:16:00;;;;;;;4.45;2.90;;;;;;;31.61;28.89;102384.88;5005097;28;21385;-80
2022/08/10 11:18:38;;;;;;;5.80;3.22;;;;;;;31.42;29.35;102376.63;4986362;28;20053;-80
2022/08/10 11:21:03;;;;;;;5.55;3.03;;;;;;;31.33;29.44;102382.16;5004742;28;20052;-80
2022/08/10 11:23:57;;;;;;;5.72;3.05;;;;;;;31.59;28.71;102378.72;5004404;28;20045;-80
2022/08/10 11:26:33;;;;;;;4.88;2.92;;;;;;;31.39;28.84;102372.50;5004305;28;20856;-82
2022/08/10 11:29:09;;;;;;;7.03;3.00;;;;;;;31.68;29.08;102371.22;5003555;28;20471;-80
2022/08/10 11:31:42;;;;;;;7.05;2.90;;;;;;;31.38;28.70;102375.63;5003929;28;20104;-82
2022/08/10 11:34:48;;;;;;;5.32;2.83;;;;;;;31.88;29.55;102377.44;5005871;28;20434;-79
2022/08/10 11:37:32;;;;;;;3.88;2.70;;;;;;;31.57;29.74;102376.25;4966046;28;20055;-81
2022/08/10 11:40:24;;;;;;;4.05;3.10;;;;;;;31.43;29.23;102370.72;5004189;28;20484;-82
2022/08/10 11:43:06;;;;;;;4.00;3.03;;;;;;;31.73;30.81;102373.91;5003217;28;20544;-82
2022/08/10 11:45:40;;;;;;;5.07;2.80;;;;;;;31.71;29.40;102370.59;5004793;28;20033;-79
2022/08/10 11:48:33;;;;;;;3.88;2.88;;;;;;;32.32;29.12;102359.69;4984003;28;20808;-79
2022/08/10 11:51:02;;;;;;;3.20;2.90;;;;;;;32.59;30.26;102359.78;4989234;28;20079;-80
2022/08/10 11:53:41;;;;;;;4.75;2.70;;;;;;;31.99;28.64;102365.63;5003797;28;20160;-79
2022/08/10 11:56:11;;;;;;;6.93;3.20;;;;;;;31.88;28.95;102369.03;5003966;28;20045;-83